sensor_id;sensor_type;location;lat;lon;timestamp;P1;durP1;ratioP1;P2;durP2;ratioP2
2940;SDS011;1480;51.456;6.670;2024-01-30T00:01:59;8.47;;;6.10;;
2940;SDS011;1480;51.456;6.670;2024-01-30T00:04:27;11.47;;;6.97;;
2940;SDS011;1480;51.456;6.670;2024-01-30T00:06:54;11.10;;;7.10;;
2940;SDS011;1480;51.456;6.670;2024-01-30T00:09:20;8.13;;;6.10;;
2940;SDS011;1480;51.456;6.670;2024-01-30T00:11:47;11.10;;;6.20;;
2940;SDS011;1480;51.456;6.670;2024-01-30T00:14:14;11.93;;;6.50;;
2940;SDS011;1480;51.456;6.670;2024-01-30T00:16:40;12.37;;;6.20;;
2940;SDS011;1480;51.456;6.670;2024-01-30T00:19:07;11.80;;;6.57;;
2940;SDS011;1480;51.456;6.670;2024-01-30T00:21:34;9.43;;;6.77;;
2940;SDS011;1480;51.456;6.670;2024-01-30T00:24:01;10.77;;;6.60;;
2940;SDS011;1480;51.456;6.670;2024-01-30T00:26:28;11.33;;;7.00;;
2940;SDS011;1480;51.456;6.670;2024-01-30T00:28:54;10.10;;;6.63;;
2940;SDS011;1480;51.456;6.670;2024-01-30T00:31:21;9.10;;;7.10;;
2940;SDS011;1480;51.456;6.670;2024-01-30T00:33:48;10.87;;;7.07;;
2940;SDS011;1480;51.456;6.670;2024-01-30T00:36:14;11.47;;;6.73;;
2940;SDS011;1480;51.456;6.670;2024-01-30T00:38:42;10.53;;;7.37;;
2940;SDS011;1480;51.456;6.670;2024-01-30T00:41:09;12.43;;;6.70;;
2940;SDS011;1480;51.456;6.670;2024-01-30T00:43:36;10.17;;;7.03;;
2940;SDS011;1480;51.456;6.670;2024-01-30T00:46:03;15.57;;;7.77;;
2940;SDS011;1480;51.456;6.670;2024-01-30T00:48:30;15.80;;;9.30;;
2940;SDS011;1480;51.456;6.670;2024-01-30T00:50:56;10.57;;;7.23;;
2940;SDS011;1480;51.456;6.670;2024-01-30T00:53:23;10.10;;;7.60;;
2940;SDS011;1480;51.456;6.670;2024-01-30T00:55:51;14.53;;;8.20;;
2940;SDS011;1480;51.456;6.670;2024-01-30T00:58:18;13.30;;;7.23;;
2940;SDS011;1480;51.456;6.670;2024-01-30T01:00:45;13.23;;;7.27;;
2940;SDS011;1480;51.456;6.670;2024-01-30T01:03:12;9.30;;;7.10;;
2940;SDS011;1480;51.456;6.670;2024-01-30T01:05:39;11.37;;;7.90;;
2940;SDS011;1480;51.456;6.670;2024-01-30T01:08:06;12.30;;;7.93;;
2940;SDS011;1480;51.456;6.670;2024-01-30T01:10:32;13.87;;;7.93;;
2940;SDS011;1480;51.456;6.670;2024-01-30T01:13:00;15.53;;;8.87;;
2940;SDS011;1480;51.456;6.670;2024-01-30T01:15:27;9.57;;;6.90;;
2940;SDS011;1480;51.456;6.670;2024-01-30T01:17:54;14.10;;;8.90;;
2940;SDS011;1480;51.456;6.670;2024-01-30T01:20:20;13.43;;;7.67;;
2940;SDS011;1480;51.456;6.670;2024-01-30T01:22:47;10.60;;;6.83;;
2940;SDS011;1480;51.456;6.670;2024-01-30T01:25:14;10.63;;;7.27;;
2940;SDS011;1480;51.456;6.670;2024-01-30T01:27:40;14.30;;;7.67;;
2940;SDS011;1480;51.456;6.670;2024-01-30T01:30:10;8.57;;;6.03;;
2940;SDS011;1480;51.456;6.670;2024-01-30T01:32:43;10.90;;;7.30;;
2940;SDS011;1480;51.456;6.670;2024-01-30T01:35:15;13.63;;;8.00;;
2940;SDS011;1480;51.456;6.670;2024-01-30T01:37:42;10.23;;;6.60;;
2940;SDS011;1480;51.456;6.670;2024-01-30T01:40:08;9.80;;;6.60;;
2940;SDS011;1480;51.456;6.670;2024-01-30T01:42:35;10.20;;;6.77;;
2940;SDS011;1480;51.456;6.670;2024-01-30T01:45:03;9.77;;;6.77;;
2940;SDS011;1480;51.456;6.670;2024-01-30T01:47:32;30.23;;;7.23;;
2940;SDS011;1480;51.456;6.670;2024-01-30T01:49:58;13.57;;;7.27;;
2940;SDS011;1480;51.456;6.670;2024-01-30T01:52:25;10.80;;;6.87;;
2940;SDS011;1480;51.456;6.670;2024-01-30T01:54:52;10.83;;;7.90;;
2940;SDS011;1480;51.456;6.670;2024-01-30T01:57:19;10.20;;;7.30;;
2940;SDS011;1480;51.456;6.670;2024-01-30T01:59:45;10.97;;;7.37;;
2940;SDS011;1480;51.456;6.670;2024-01-30T02:02:12;10.80;;;7.90;;
2940;SDS011;1480;51.456;6.670;2024-01-30T02:04:42;10.57;;;6.60;;
2940;SDS011;1480;51.456;6.670;2024-01-30T02:07:09;14.93;;;7.17;;
2940;SDS011;1480;51.456;6.670;2024-01-30T02:09:36;11.63;;;7.40;;
2940;SDS011;1480;51.456;6.670;2024-01-30T02:12:02;12.33;;;7.80;;
2940;SDS011;1480;51.456;6.670;2024-01-30T02:14:29;12.83;;;7.97;;
2940;SDS011;1480;51.456;6.670;2024-01-30T02:16:56;10.80;;;8.10;;
2940;SDS011;1480;51.456;6.670;2024-01-30T02:19:23;9.10;;;6.10;;
2940;SDS011;1480;51.456;6.670;2024-01-30T02:21:51;10.03;;;6.40;;
2940;SDS011;1480;51.456;6.670;2024-01-30T02:24:18;8.60;;;6.70;;
2940;SDS011;1480;51.456;6.670;2024-01-30T02:26:44;11.00;;;7.60;;
2940;SDS011;1480;51.456;6.670;2024-01-30T02:29:11;19.40;;;8.63;;
2940;SDS011;1480;51.456;6.670;2024-01-30T02:31:37;18.20;;;8.80;;
2940;SDS011;1480;51.456;6.670;2024-01-30T02:34:04;17.33;;;8.43;;
2940;SDS011;1480;51.456;6.670;2024-01-30T02:36:31;13.27;;;7.53;;
2940;SDS011;1480;51.456;6.670;2024-01-30T02:38:59;13.30;;;8.30;;
2940;SDS011;1480;51.456;6.670;2024-01-30T02:41:25;15.70;;;8.77;;
2940;SDS011;1480;51.456;6.670;2024-01-30T02:43:52;14.73;;;8.00;;
2940;SDS011;1480;51.456;6.670;2024-01-30T02:46:19;14.73;;;9.70;;
2940;SDS011;1480;51.456;6.670;2024-01-30T02:48:45;14.97;;;8.87;;
2940;SDS011;1480;51.456;6.670;2024-01-30T02:51:12;12.50;;;7.00;;
2940;SDS011;1480;51.456;6.670;2024-01-30T02:53:39;15.90;;;7.73;;
2940;SDS011;1480;51.456;6.670;2024-01-30T02:56:07;14.57;;;8.10;;
2940;SDS011;1480;51.456;6.670;2024-01-30T02:58:35;14.30;;;9.37;;
2940;SDS011;1480;51.456;6.670;2024-01-30T03:01:01;13.50;;;8.97;;
2940;SDS011;1480;51.456;6.670;2024-01-30T03:03:28;20.00;;;9.27;;
2940;SDS011;1480;51.456;6.670;2024-01-30T03:05:55;12.60;;;8.50;;
2940;SDS011;1480;51.456;6.670;2024-01-30T03:08:21;13.97;;;8.50;;
2940;SDS011;1480;51.456;6.670;2024-01-30T03:10:48;12.37;;;8.20;;
2940;SDS011;1480;51.456;6.670;2024-01-30T03:13:16;14.00;;;7.97;;
2940;SDS011;1480;51.456;6.670;2024-01-30T03:15:43;11.97;;;8.13;;
2940;SDS011;1480;51.456;6.670;2024-01-30T03:18:10;13.10;;;7.50;;
2940;SDS011;1480;51.456;6.670;2024-01-30T03:20:36;13.20;;;8.40;;
2940;SDS011;1480;51.456;6.670;2024-01-30T03:23:03;14.80;;;7.60;;
2940;SDS011;1480;51.456;6.670;2024-01-30T03:25:30;11.23;;;8.33;;
2940;SDS011;1480;51.456;6.670;2024-01-30T03:27:57;9.60;;;6.40;;
2940;SDS011;1480;51.456;6.670;2024-01-30T03:30:25;12.20;;;7.03;;
2940;SDS011;1480;51.456;6.670;2024-01-30T03:32:52;12.07;;;7.40;;
2940;SDS011;1480;51.456;6.670;2024-01-30T03:35:18;7.40;;;6.00;;
2940;SDS011;1480;51.456;6.670;2024-01-30T03:37:45;14.70;;;7.10;;
2940;SDS011;1480;51.456;6.670;2024-01-30T03:40:12;10.77;;;6.50;;
2940;SDS011;1480;51.456;6.670;2024-01-30T03:42:39;11.43;;;6.20;;
2940;SDS011;1480;51.456;6.670;2024-01-30T03:45:06;10.53;;;6.97;;
2940;SDS011;1480;51.456;6.670;2024-01-30T03:47:35;12.93;;;7.53;;
2940;SDS011;1480;51.456;6.670;2024-01-30T03:50:01;14.10;;;7.50;;
2940;SDS011;1480;51.456;6.670;2024-01-30T03:52:30;9.27;;;6.40;;
2940;SDS011;1480;51.456;6.670;2024-01-30T03:54:56;8.17;;;6.53;;
2940;SDS011;1480;51.456;6.670;2024-01-30T03:57:23;15.33;;;7.50;;
2940;SDS011;1480;51.456;6.670;2024-01-30T03:59:49;9.27;;;5.40;;
2940;SDS011;1480;51.456;6.670;2024-01-30T04:02:16;11.00;;;6.80;;
2940;SDS011;1480;51.456;6.670;2024-01-30T04:04:44;9.50;;;6.27;;
2940;SDS011;1480;51.456;6.670;2024-01-30T04:07:11;11.63;;;6.23;;
2940;SDS011;1480;51.456;6.670;2024-01-30T04:09:38;10.50;;;7.70;;
2940;SDS011;1480;51.456;6.670;2024-01-30T04:12:04;10.23;;;7.03;;
2940;SDS011;1480;51.456;6.670;2024-01-30T04:14:31;17.30;;;7.77;;
2940;SDS011;1480;51.456;6.670;2024-01-30T04:16:58;14.10;;;7.57;;
2940;SDS011;1480;51.456;6.670;2024-01-30T04:19:25;9.70;;;6.47;;
2940;SDS011;1480;51.456;6.670;2024-01-30T04:21:53;11.27;;;6.43;;
2940;SDS011;1480;51.456;6.670;2024-01-30T04:24:19;11.10;;;7.10;;
2940;SDS011;1480;51.456;6.670;2024-01-30T04:26:46;13.10;;;7.13;;
2940;SDS011;1480;51.456;6.670;2024-01-30T04:29:13;10.30;;;6.70;;
2940;SDS011;1480;51.456;6.670;2024-01-30T04:31:39;10.67;;;6.20;;
2940;SDS011;1480;51.456;6.670;2024-01-30T04:34:06;14.60;;;6.30;;
2940;SDS011;1480;51.456;6.670;2024-01-30T04:36:32;13.30;;;7.17;;
2940;SDS011;1480;51.456;6.670;2024-01-30T04:39:00;14.17;;;6.60;;
2940;SDS011;1480;51.456;6.670;2024-01-30T04:41:27;8.80;;;6.47;;
2940;SDS011;1480;51.456;6.670;2024-01-30T04:43:56;8.93;;;6.40;;
2940;SDS011;1480;51.456;6.670;2024-01-30T04:46:23;9.83;;;6.60;;
2940;SDS011;1480;51.456;6.670;2024-01-30T04:48:49;10.73;;;7.00;;
2940;SDS011;1480;51.456;6.670;2024-01-30T04:51:16;9.33;;;5.63;;
2940;SDS011;1480;51.456;6.670;2024-01-30T04:53:43;8.57;;;4.83;;
2940;SDS011;1480;51.456;6.670;2024-01-30T04:56:11;12.80;;;6.60;;
2940;SDS011;1480;51.456;6.670;2024-01-30T04:58:37;12.77;;;6.07;;
2940;SDS011;1480;51.456;6.670;2024-01-30T05:01:04;12.77;;;7.40;;
2940;SDS011;1480;51.456;6.670;2024-01-30T05:03:32;11.97;;;6.10;;
2940;SDS011;1480;51.456;6.670;2024-01-30T05:05:59;10.20;;;6.67;;
2940;SDS011;1480;51.456;6.670;2024-01-30T05:08:26;12.53;;;6.37;;
2940;SDS011;1480;51.456;6.670;2024-01-30T05:10:52;12.03;;;7.17;;
2940;SDS011;1480;51.456;6.670;2024-01-30T05:13:23;12.10;;;6.90;;
2940;SDS011;1480;51.456;6.670;2024-01-30T05:15:49;8.40;;;5.60;;
2940;SDS011;1480;51.456;6.670;2024-01-30T05:18:16;12.10;;;6.17;;
2940;SDS011;1480;51.456;6.670;2024-01-30T05:20:43;7.53;;;5.73;;
2940;SDS011;1480;51.456;6.670;2024-01-30T05:23:10;10.30;;;6.57;;
2940;SDS011;1480;51.456;6.670;2024-01-30T05:25:36;9.57;;;6.97;;
2940;SDS011;1480;51.456;6.670;2024-01-30T05:28:03;9.40;;;7.00;;
2940;SDS011;1480;51.456;6.670;2024-01-30T05:30:32;10.47;;;6.73;;
2940;SDS011;1480;51.456;6.670;2024-01-30T05:32:58;12.40;;;6.50;;
2940;SDS011;1480;51.456;6.670;2024-01-30T05:35:25;13.87;;;6.17;;
2940;SDS011;1480;51.456;6.670;2024-01-30T05:37:52;8.33;;;5.10;;
2940;SDS011;1480;51.456;6.670;2024-01-30T05:40:18;11.60;;;7.03;;
2940;SDS011;1480;51.456;6.670;2024-01-30T05:42:44;10.17;;;6.47;;
2940;SDS011;1480;51.456;6.670;2024-01-30T05:45:11;9.33;;;5.73;;
2940;SDS011;1480;51.456;6.670;2024-01-30T05:47:39;8.73;;;6.30;;
2940;SDS011;1480;51.456;6.670;2024-01-30T05:50:06;13.30;;;7.67;;
2940;SDS011;1480;51.456;6.670;2024-01-30T05:52:33;8.70;;;6.57;;
2940;SDS011;1480;51.456;6.670;2024-01-30T05:55:00;9.90;;;5.93;;
2940;SDS011;1480;51.456;6.670;2024-01-30T05:57:27;9.13;;;5.70;;
2940;SDS011;1480;51.456;6.670;2024-01-30T05:59:54;9.17;;;6.30;;
2940;SDS011;1480;51.456;6.670;2024-01-30T06:02:20;13.03;;;6.10;;
2940;SDS011;1480;51.456;6.670;2024-01-30T06:04:48;9.77;;;7.07;;
2940;SDS011;1480;51.456;6.670;2024-01-30T06:07:15;8.67;;;6.70;;
2940;SDS011;1480;51.456;6.670;2024-01-30T06:09:42;13.43;;;7.50;;
2940;SDS011;1480;51.456;6.670;2024-01-30T06:12:09;10.70;;;7.30;;
2940;SDS011;1480;51.456;6.670;2024-01-30T06:14:36;10.27;;;6.50;;
2940;SDS011;1480;51.456;6.670;2024-01-30T06:17:03;9.67;;;6.30;;
2940;SDS011;1480;51.456;6.670;2024-01-30T06:19:30;9.77;;;6.70;;
2940;SDS011;1480;51.456;6.670;2024-01-30T06:21:58;8.90;;;5.73;;
2940;SDS011;1480;51.456;6.670;2024-01-30T06:24:25;11.60;;;6.90;;
2940;SDS011;1480;51.456;6.670;2024-01-30T06:26:52;10.90;;;6.50;;
2940;SDS011;1480;51.456;6.670;2024-01-30T06:29:19;11.53;;;7.20;;
2940;SDS011;1480;51.456;6.670;2024-01-30T06:31:46;9.50;;;6.40;;
2940;SDS011;1480;51.456;6.670;2024-01-30T06:34:13;17.90;;;8.30;;
2940;SDS011;1480;51.456;6.670;2024-01-30T06:36:39;14.03;;;6.30;;
2940;SDS011;1480;51.456;6.670;2024-01-30T06:39:07;9.37;;;5.67;;
2940;SDS011;1480;51.456;6.670;2024-01-30T06:41:34;10.10;;;6.87;;
2940;SDS011;1480;51.456;6.670;2024-01-30T06:44:01;10.07;;;6.13;;
2940;SDS011;1480;51.456;6.670;2024-01-30T06:46:29;11.10;;;6.50;;
2940;SDS011;1480;51.456;6.670;2024-01-30T06:48:55;7.80;;;6.10;;
2940;SDS011;1480;51.456;6.670;2024-01-30T06:51:22;9.10;;;6.63;;
2940;SDS011;1480;51.456;6.670;2024-01-30T06:53:49;7.23;;;6.40;;
2940;SDS011;1480;51.456;6.670;2024-01-30T06:56:17;9.57;;;6.67;;
2940;SDS011;1480;51.456;6.670;2024-01-30T06:58:46;9.07;;;5.43;;
2940;SDS011;1480;51.456;6.670;2024-01-30T07:01:14;10.43;;;7.10;;
2940;SDS011;1480;51.456;6.670;2024-01-30T07:03:41;11.83;;;7.20;;
2940;SDS011;1480;51.456;6.670;2024-01-30T07:06:07;10.40;;;5.90;;
2940;SDS011;1480;51.456;6.670;2024-01-30T07:08:36;12.43;;;6.80;;
2940;SDS011;1480;51.456;6.670;2024-01-30T07:11:04;8.20;;;5.90;;
2940;SDS011;1480;51.456;6.670;2024-01-30T07:13:32;10.20;;;6.77;;
2940;SDS011;1480;51.456;6.670;2024-01-30T07:15:58;10.20;;;5.30;;
2940;SDS011;1480;51.456;6.670;2024-01-30T07:18:25;12.20;;;7.80;;
2940;SDS011;1480;51.456;6.670;2024-01-30T07:20:52;14.17;;;5.90;;
2940;SDS011;1480;51.456;6.670;2024-01-30T07:23:18;8.23;;;5.83;;
2940;SDS011;1480;51.456;6.670;2024-01-30T07:25:45;10.70;;;6.70;;
2940;SDS011;1480;51.456;6.670;2024-01-30T07:28:14;17.00;;;6.30;;
2940;SDS011;1480;51.456;6.670;2024-01-30T07:30:43;8.33;;;5.53;;
2940;SDS011;1480;51.456;6.670;2024-01-30T07:33:09;9.23;;;5.47;;
2940;SDS011;1480;51.456;6.670;2024-01-30T07:35:36;8.97;;;5.73;;
2940;SDS011;1480;51.456;6.670;2024-01-30T07:38:03;10.47;;;6.53;;
2940;SDS011;1480;51.456;6.670;2024-01-30T07:40:30;9.00;;;6.53;;
2940;SDS011;1480;51.456;6.670;2024-01-30T07:42:58;11.37;;;5.87;;
2940;SDS011;1480;51.456;6.670;2024-01-30T07:45:25;10.37;;;6.57;;
2940;SDS011;1480;51.456;6.670;2024-01-30T07:47:54;10.70;;;6.23;;
2940;SDS011;1480;51.456;6.670;2024-01-30T07:50:20;8.00;;;6.27;;
2940;SDS011;1480;51.456;6.670;2024-01-30T07:52:47;9.37;;;6.90;;
2940;SDS011;1480;51.456;6.670;2024-01-30T07:55:16;10.40;;;5.70;;
2940;SDS011;1480;51.456;6.670;2024-01-30T07:57:44;10.30;;;5.70;;
2940;SDS011;1480;51.456;6.670;2024-01-30T08:00:11;11.40;;;6.27;;
2940;SDS011;1480;51.456;6.670;2024-01-30T08:02:39;17.97;;;6.67;;
2940;SDS011;1480;51.456;6.670;2024-01-30T08:05:07;10.83;;;6.17;;
2940;SDS011;1480;51.456;6.670;2024-01-30T08:07:36;11.00;;;6.40;;
2940;SDS011;1480;51.456;6.670;2024-01-30T08:10:02;8.30;;;5.87;;
2940;SDS011;1480;51.456;6.670;2024-01-30T08:12:29;11.90;;;7.17;;
2940;SDS011;1480;51.456;6.670;2024-01-30T08:14:56;11.60;;;6.07;;
2940;SDS011;1480;51.456;6.670;2024-01-30T08:17:22;10.10;;;6.87;;
2940;SDS011;1480;51.456;6.670;2024-01-30T08:19:49;11.10;;;6.70;;
2940;SDS011;1480;51.456;6.670;2024-01-30T08:22:17;9.70;;;6.20;;
2940;SDS011;1480;51.456;6.670;2024-01-30T08:24:44;6.83;;;5.80;;
2940;SDS011;1480;51.456;6.670;2024-01-30T08:27:11;12.13;;;7.57;;
2940;SDS011;1480;51.456;6.670;2024-01-30T08:29:37;9.17;;;6.20;;
2940;SDS011;1480;51.456;6.670;2024-01-30T08:32:05;9.17;;;5.83;;
2940;SDS011;1480;51.456;6.670;2024-01-30T08:34:32;12.67;;;6.50;;
2940;SDS011;1480;51.456;6.670;2024-01-30T08:36:59;8.27;;;5.87;;
2940;SDS011;1480;51.456;6.670;2024-01-30T08:39:27;8.80;;;6.10;;
2940;SDS011;1480;51.456;6.670;2024-01-30T08:41:53;8.40;;;6.40;;
2940;SDS011;1480;51.456;6.670;2024-01-30T08:44:20;9.80;;;5.73;;
2940;SDS011;1480;51.456;6.670;2024-01-30T08:46:47;10.33;;;7.03;;
2940;SDS011;1480;51.456;6.670;2024-01-30T08:49:15;9.13;;;6.27;;
2940;SDS011;1480;51.456;6.670;2024-01-30T08:51:42;12.03;;;7.27;;
2940;SDS011;1480;51.456;6.670;2024-01-30T08:54:09;10.83;;;6.70;;
2940;SDS011;1480;51.456;6.670;2024-01-30T08:56:37;7.60;;;5.60;;
2940;SDS011;1480;51.456;6.670;2024-01-30T08:59:04;10.17;;;6.80;;
2940;SDS011;1480;51.456;6.670;2024-01-30T09:01:30;11.80;;;7.10;;
2940;SDS011;1480;51.456;6.670;2024-01-30T09:03:57;10.00;;;6.30;;
2940;SDS011;1480;51.456;6.670;2024-01-30T09:06:24;11.33;;;6.40;;
2940;SDS011;1480;51.456;6.670;2024-01-30T09:08:51;12.53;;;6.87;;
2940;SDS011;1480;51.456;6.670;2024-01-30T09:11:18;15.60;;;6.60;;
2940;SDS011;1480;51.456;6.670;2024-01-30T09:13:46;11.93;;;8.07;;
2940;SDS011;1480;51.456;6.670;2024-01-30T09:16:13;9.73;;;6.77;;
2940;SDS011;1480;51.456;6.670;2024-01-30T09:18:41;14.47;;;6.80;;
2940;SDS011;1480;51.456;6.670;2024-01-30T09:21:07;7.87;;;5.90;;
2940;SDS011;1480;51.456;6.670;2024-01-30T09:23:34;11.60;;;7.67;;
2940;SDS011;1480;51.456;6.670;2024-01-30T09:26:01;10.63;;;6.77;;
2940;SDS011;1480;51.456;6.670;2024-01-30T09:28:27;8.40;;;6.10;;
2940;SDS011;1480;51.456;6.670;2024-01-30T09:30:56;13.50;;;7.90;;
2940;SDS011;1480;51.456;6.670;2024-01-30T09:33:23;12.00;;;7.60;;
2940;SDS011;1480;51.456;6.670;2024-01-30T09:35:49;14.07;;;6.73;;
2940;SDS011;1480;51.456;6.670;2024-01-30T09:38:16;13.23;;;7.30;;
2940;SDS011;1480;51.456;6.670;2024-01-30T09:40:43;13.10;;;6.77;;
2940;SDS011;1480;51.456;6.670;2024-01-30T09:43:10;13.57;;;7.10;;
2940;SDS011;1480;51.456;6.670;2024-01-30T09:45:43;14.60;;;7.67;;
2940;SDS011;1480;51.456;6.670;2024-01-30T09:48:12;13.20;;;7.70;;
2940;SDS011;1480;51.456;6.670;2024-01-30T09:50:39;9.07;;;6.90;;
2940;SDS011;1480;51.456;6.670;2024-01-30T09:53:06;12.37;;;7.10;;
2940;SDS011;1480;51.456;6.670;2024-01-30T09:55:33;8.83;;;6.90;;
2940;SDS011;1480;51.456;6.670;2024-01-30T09:58:01;12.03;;;6.80;;
2940;SDS011;1480;51.456;6.670;2024-01-30T10:00:27;14.87;;;7.70;;
2940;SDS011;1480;51.456;6.670;2024-01-30T10:02:54;8.20;;;6.70;;
2940;SDS011;1480;51.456;6.670;2024-01-30T10:05:22;9.87;;;7.60;;
2940;SDS011;1480;51.456;6.670;2024-01-30T10:07:53;10.70;;;6.77;;
2940;SDS011;1480;51.456;6.670;2024-01-30T10:10:21;9.50;;;7.17;;
2940;SDS011;1480;51.456;6.670;2024-01-30T10:12:48;13.60;;;7.23;;
2940;SDS011;1480;51.456;6.670;2024-01-30T10:15:15;10.27;;;6.90;;
2940;SDS011;1480;51.456;6.670;2024-01-30T10:17:41;12.83;;;7.07;;
2940;SDS011;1480;51.456;6.670;2024-01-30T10:20:09;13.80;;;7.27;;
2940;SDS011;1480;51.456;6.670;2024-01-30T10:22:37;10.47;;;7.27;;
2940;SDS011;1480;51.456;6.670;2024-01-30T10:25:04;15.33;;;7.83;;
2940;SDS011;1480;51.456;6.670;2024-01-30T10:27:32;10.70;;;7.17;;
2940;SDS011;1480;51.456;6.670;2024-01-30T10:29:59;9.87;;;7.67;;
2940;SDS011;1480;51.456;6.670;2024-01-30T10:32:26;14.33;;;9.37;;
2940;SDS011;1480;51.456;6.670;2024-01-30T10:34:53;9.37;;;6.27;;
2940;SDS011;1480;51.456;6.670;2024-01-30T10:37:20;12.23;;;8.40;;
2940;SDS011;1480;51.456;6.670;2024-01-30T10:39:49;13.33;;;8.50;;
2940;SDS011;1480;51.456;6.670;2024-01-30T10:42:17;10.67;;;7.30;;
2940;SDS011;1480;51.456;6.670;2024-01-30T10:44:48;10.00;;;7.73;;
2940;SDS011;1480;51.456;6.670;2024-01-30T10:47:21;9.50;;;8.13;;
2940;SDS011;1480;51.456;6.670;2024-01-30T10:49:51;9.93;;;6.90;;
2940;SDS011;1480;51.456;6.670;2024-01-30T10:52:18;10.47;;;6.30;;
2940;SDS011;1480;51.456;6.670;2024-01-30T10:54:46;9.37;;;6.07;;
2940;SDS011;1480;51.456;6.670;2024-01-30T10:57:14;10.57;;;7.00;;
2940;SDS011;1480;51.456;6.670;2024-01-30T10:59:42;8.30;;;5.83;;
2940;SDS011;1480;51.456;6.670;2024-01-30T11:02:09;7.53;;;5.30;;
2940;SDS011;1480;51.456;6.670;2024-01-30T11:04:36;9.87;;;6.03;;
2940;SDS011;1480;51.456;6.670;2024-01-30T11:07:13;9.57;;;5.47;;
2940;SDS011;1480;51.456;6.670;2024-01-30T11:09:40;8.03;;;5.70;;
2940;SDS011;1480;51.456;6.670;2024-01-30T11:12:12;9.40;;;6.13;;
2940;SDS011;1480;51.456;6.670;2024-01-30T11:14:40;11.00;;;5.97;;
2940;SDS011;1480;51.456;6.670;2024-01-30T11:17:06;10.93;;;6.40;;
2940;SDS011;1480;51.456;6.670;2024-01-30T11:19:33;14.83;;;6.87;;
2940;SDS011;1480;51.456;6.670;2024-01-30T11:22:00;6.47;;;4.87;;
2940;SDS011;1480;51.456;6.670;2024-01-30T11:24:27;8.53;;;6.13;;
2940;SDS011;1480;51.456;6.670;2024-01-30T11:26:55;12.10;;;8.20;;
2940;SDS011;1480;51.456;6.670;2024-01-30T11:29:24;8.40;;;5.87;;
2940;SDS011;1480;51.456;6.670;2024-01-30T11:31:52;11.53;;;6.00;;
2940;SDS011;1480;51.456;6.670;2024-01-30T11:34:20;11.40;;;6.20;;
2940;SDS011;1480;51.456;6.670;2024-01-30T11:36:48;10.63;;;5.67;;
2940;SDS011;1480;51.456;6.670;2024-01-30T11:39:20;8.03;;;5.93;;
2940;SDS011;1480;51.456;6.670;2024-01-30T11:41:47;10.70;;;5.53;;
2940;SDS011;1480;51.456;6.670;2024-01-30T11:44:15;13.50;;;5.83;;
2940;SDS011;1480;51.456;6.670;2024-01-30T11:46:42;12.13;;;6.10;;
2940;SDS011;1480;51.456;6.670;2024-01-30T11:49:10;12.50;;;5.13;;
2940;SDS011;1480;51.456;6.670;2024-01-30T11:51:37;7.27;;;4.60;;
2940;SDS011;1480;51.456;6.670;2024-01-30T11:54:04;6.30;;;5.37;;
2940;SDS011;1480;51.456;6.670;2024-01-30T11:56:30;11.00;;;5.70;;
2940;SDS011;1480;51.456;6.670;2024-01-30T11:58:57;7.37;;;5.13;;
2940;SDS011;1480;51.456;6.670;2024-01-30T12:01:25;10.00;;;5.63;;
2940;SDS011;1480;51.456;6.670;2024-01-30T12:03:52;7.73;;;5.63;;
2940;SDS011;1480;51.456;6.670;2024-01-30T12:06:20;7.13;;;4.80;;
2940;SDS011;1480;51.456;6.670;2024-01-30T12:08:55;12.80;;;6.50;;
2940;SDS011;1480;51.456;6.670;2024-01-30T12:11:23;8.20;;;5.20;;
2940;SDS011;1480;51.456;6.670;2024-01-30T12:13:50;9.20;;;6.50;;
2940;SDS011;1480;51.456;6.670;2024-01-30T12:16:17;10.60;;;6.10;;
2940;SDS011;1480;51.456;6.670;2024-01-30T12:18:44;9.67;;;6.07;;
2940;SDS011;1480;51.456;6.670;2024-01-30T12:21:10;10.67;;;6.47;;
2940;SDS011;1480;51.456;6.670;2024-01-30T12:23:39;7.67;;;6.07;;
2940;SDS011;1480;51.456;6.670;2024-01-30T12:26:06;9.13;;;5.57;;
2940;SDS011;1480;51.456;6.670;2024-01-30T12:28:32;8.03;;;5.77;;
2940;SDS011;1480;51.456;6.670;2024-01-30T12:31:01;8.00;;;5.60;;
2940;SDS011;1480;51.456;6.670;2024-01-30T12:33:28;8.67;;;6.13;;
2940;SDS011;1480;51.456;6.670;2024-01-30T12:35:55;8.60;;;5.40;;
2940;SDS011;1480;51.456;6.670;2024-01-30T12:38:22;13.27;;;6.20;;
2940;SDS011;1480;51.456;6.670;2024-01-30T12:40:52;11.43;;;6.13;;
2940;SDS011;1480;51.456;6.670;2024-01-30T12:43:21;8.40;;;5.60;;
2940;SDS011;1480;51.456;6.670;2024-01-30T12:45:47;8.33;;;5.70;;
2940;SDS011;1480;51.456;6.670;2024-01-30T12:48:14;7.93;;;5.60;;
2940;SDS011;1480;51.456;6.670;2024-01-30T12:50:41;8.30;;;4.70;;
2940;SDS011;1480;51.456;6.670;2024-01-30T12:53:07;14.60;;;5.60;;
2940;SDS011;1480;51.456;6.670;2024-01-30T12:55:34;10.50;;;7.80;;
2940;SDS011;1480;51.456;6.670;2024-01-30T12:58:02;9.80;;;5.87;;
2940;SDS011;1480;51.456;6.670;2024-01-30T13:00:29;9.80;;;6.40;;
2940;SDS011;1480;51.456;6.670;2024-01-30T13:02:56;7.77;;;4.93;;
2940;SDS011;1480;51.456;6.670;2024-01-30T13:05:22;9.37;;;5.83;;
2940;SDS011;1480;51.456;6.670;2024-01-30T13:07:49;9.70;;;6.83;;
2940;SDS011;1480;51.456;6.670;2024-01-30T13:10:16;7.60;;;4.60;;
2940;SDS011;1480;51.456;6.670;2024-01-30T13:12:43;8.80;;;4.70;;
2940;SDS011;1480;51.456;6.670;2024-01-30T13:15:11;8.23;;;5.87;;
2940;SDS011;1480;51.456;6.670;2024-01-30T13:17:38;10.60;;;5.37;;
2940;SDS011;1480;51.456;6.670;2024-01-30T13:20:05;9.97;;;5.70;;
2940;SDS011;1480;51.456;6.670;2024-01-30T13:22:33;11.60;;;5.90;;
2940;SDS011;1480;51.456;6.670;2024-01-30T13:25:00;10.73;;;5.37;;
2940;SDS011;1480;51.456;6.670;2024-01-30T13:27:26;7.20;;;5.07;;
2940;SDS011;1480;51.456;6.670;2024-01-30T13:29:53;9.23;;;4.33;;
2940;SDS011;1480;51.456;6.670;2024-01-30T13:32:21;8.73;;;4.60;;
2940;SDS011;1480;51.456;6.670;2024-01-30T13:34:48;11.73;;;5.10;;
2940;SDS011;1480;51.456;6.670;2024-01-30T13:37:14;9.17;;;4.60;;
2940;SDS011;1480;51.456;6.670;2024-01-30T13:39:41;7.20;;;4.20;;
2940;SDS011;1480;51.456;6.670;2024-01-30T13:42:08;7.13;;;5.60;;
2940;SDS011;1480;51.456;6.670;2024-01-30T13:44:34;8.23;;;4.90;;
2940;SDS011;1480;51.456;6.670;2024-01-30T13:47:01;6.53;;;4.50;;
2940;SDS011;1480;51.456;6.670;2024-01-30T13:49:29;6.30;;;4.27;;
2940;SDS011;1480;51.456;6.670;2024-01-30T13:51:56;7.10;;;4.47;;
2940;SDS011;1480;51.456;6.670;2024-01-30T13:54:23;4.70;;;3.83;;
2940;SDS011;1480;51.456;6.670;2024-01-30T13:56:50;10.20;;;6.30;;
2940;SDS011;1480;51.456;6.670;2024-01-30T13:59:16;7.50;;;5.53;;
2940;SDS011;1480;51.456;6.670;2024-01-30T14:01:48;6.80;;;4.00;;
2940;SDS011;1480;51.456;6.670;2024-01-30T14:04:15;7.37;;;4.63;;
2940;SDS011;1480;51.456;6.670;2024-01-30T14:06:43;7.37;;;4.20;;
2940;SDS011;1480;51.456;6.670;2024-01-30T14:09:09;11.13;;;5.20;;
2940;SDS011;1480;51.456;6.670;2024-01-30T14:11:36;11.63;;;5.70;;
2940;SDS011;1480;51.456;6.670;2024-01-30T14:14:03;5.50;;;3.77;;
2940;SDS011;1480;51.456;6.670;2024-01-30T14:16:29;8.47;;;5.57;;
2940;SDS011;1480;51.456;6.670;2024-01-30T14:18:56;10.30;;;6.00;;
2940;SDS011;1480;51.456;6.670;2024-01-30T14:21:23;10.40;;;6.00;;
2940;SDS011;1480;51.456;6.670;2024-01-30T14:23:51;7.50;;;4.30;;
2940;SDS011;1480;51.456;6.670;2024-01-30T14:26:17;9.77;;;5.53;;
2940;SDS011;1480;51.456;6.670;2024-01-30T14:28:44;6.87;;;4.50;;
2940;SDS011;1480;51.456;6.670;2024-01-30T14:31:12;6.73;;;5.03;;
2940;SDS011;1480;51.456;6.670;2024-01-30T14:33:39;11.57;;;4.87;;
2940;SDS011;1480;51.456;6.670;2024-01-30T14:36:05;6.70;;;3.40;;
2940;SDS011;1480;51.456;6.670;2024-01-30T14:38:33;4.80;;;3.70;;
2940;SDS011;1480;51.456;6.670;2024-01-30T14:41:01;5.20;;;3.20;;
2940;SDS011;1480;51.456;6.670;2024-01-30T14:43:28;4.70;;;3.13;;
2940;SDS011;1480;51.456;6.670;2024-01-30T14:45:55;5.50;;;3.03;;
2940;SDS011;1480;51.456;6.670;2024-01-30T14:48:23;5.70;;;2.97;;
2940;SDS011;1480;51.456;6.670;2024-01-30T14:50:49;5.17;;;3.30;;
2940;SDS011;1480;51.456;6.670;2024-01-30T14:53:16;3.40;;;2.20;;
2940;SDS011;1480;51.456;6.670;2024-01-30T14:55:43;4.40;;;2.67;;
2940;SDS011;1480;51.456;6.670;2024-01-30T14:58:11;6.70;;;2.70;;
2940;SDS011;1480;51.456;6.670;2024-01-30T15:00:38;8.10;;;3.47;;
2940;SDS011;1480;51.456;6.670;2024-01-30T15:03:05;6.50;;;3.20;;
2940;SDS011;1480;51.456;6.670;2024-01-30T15:05:31;7.10;;;4.03;;
2940;SDS011;1480;51.456;6.670;2024-01-30T15:07:58;3.83;;;3.03;;